createdAt,value
2024-01-09T00:00:09.281Z,25.70
2024-01-09T00:02:36.988Z,24.70
2024-01-09T00:05:04.691Z,27.90
2024-01-09T00:07:32.457Z,23.10
2024-01-09T00:10:00.179Z,24.40
2024-01-09T00:12:27.994Z,24.40
2024-01-09T00:14:55.676Z,32.00
2024-01-09T00:17:23.443Z,26.60
2024-01-09T00:19:51.337Z,25.30
2024-01-09T00:22:19.049Z,26.60
2024-01-09T00:24:46.714Z,24.40
2024-01-09T00:27:14.269Z,30.80
2024-01-09T00:29:42.061Z,29.20
2024-01-09T00:32:10.064Z,28.30
2024-01-09T00:34:37.848Z,27.90
2024-01-09T00:37:05.623Z,27.40
2024-01-09T00:39:33.191Z,27.30
2024-01-09T00:42:00.902Z,27.10
2024-01-09T00:44:28.665Z,29.50
2024-01-09T00:46:56.487Z,30.90
2024-01-09T00:49:24.137Z,29.70
2024-01-09T00:51:51.911Z,29.60
2024-01-09T00:54:19.574Z,29.70
2024-01-09T00:56:47.281Z,29.40
2024-01-09T00:59:15.125Z,28.50
2024-01-09T01:01:43.162Z,28.00
2024-01-09T01:04:10.763Z,27.30
2024-01-09T01:06:38.474Z,28.70
2024-01-09T01:09:06.033Z,29.40
2024-01-09T01:11:33.745Z,30.90
2024-01-09T01:14:01.353Z,28.90
2024-01-09T01:16:29.034Z,29.20
2024-01-09T01:18:56.680Z,31.00
2024-01-09T01:21:24.242Z,30.00
2024-01-09T01:23:52.321Z,28.70
2024-01-09T01:26:20.201Z,27.30
2024-01-09T01:28:47.747Z,27.30
2024-01-09T01:31:15.288Z,25.30
2024-01-09T01:33:42.932Z,24.20
2024-01-09T01:36:10.720Z,25.20
2024-01-09T01:38:38.288Z,26.50
2024-01-09T01:41:05.972Z,25.00
2024-01-09T01:43:33.695Z,25.50
2024-01-09T01:46:01.261Z,25.70
2024-01-09T01:48:29.050Z,25.40
2024-01-09T01:50:56.741Z,26.90
2024-01-09T01:53:24.375Z,27.00
2024-01-09T01:55:52.103Z,28.60
2024-01-09T01:58:19.683Z,29.80
2024-01-09T02:00:47.250Z,30.20
2024-01-09T02:03:14.910Z,30.00
2024-01-09T02:05:42.658Z,29.40
2024-01-09T02:08:10.455Z,29.90
2024-01-09T02:10:38.106Z,30.20
2024-01-09T02:13:05.747Z,31.60
2024-01-09T02:15:33.198Z,30.70
2024-01-09T02:18:00.941Z,29.30
2024-01-09T02:20:28.711Z,26.80
2024-01-09T02:22:56.390Z,22.50
2024-01-09T02:25:23.951Z,21.00
2024-01-09T02:27:51.564Z,26.00
2024-01-09T02:30:19.689Z,24.50
2024-01-09T02:32:47.456Z,26.00
2024-01-09T02:35:15.240Z,27.00
2024-01-09T02:37:42.854Z,26.60
2024-01-09T02:40:10.529Z,27.00
2024-01-09T02:42:38.087Z,28.10
2024-01-09T02:45:05.735Z,27.90
2024-01-09T02:47:33.411Z,26.20
2024-01-09T02:50:01.475Z,29.40
2024-01-09T02:52:29.138Z,33.10
2024-01-09T02:54:56.796Z,31.70
2024-01-09T02:57:24.380Z,26.90
2024-01-09T02:59:52.185Z,29.10
2024-01-09T03:02:19.979Z,31.10
2024-01-09T03:04:47.642Z,29.20
2024-01-09T03:07:15.598Z,30.30
2024-01-09T03:09:43.684Z,31.20
2024-01-09T03:12:11.259Z,31.50
2024-01-09T03:14:38.904Z,30.90
2024-01-09T03:17:06.576Z,29.60
2024-01-09T03:19:34.151Z,29.60
2024-01-09T03:22:01.800Z,31.60
2024-01-09T03:24:29.457Z,30.50
2024-01-09T03:26:57.017Z,29.40
2024-01-09T03:29:24.697Z,33.50
2024-01-09T03:31:52.740Z,32.20
2024-01-09T03:34:20.530Z,30.00
2024-01-09T03:36:48.170Z,28.30
2024-01-09T03:39:15.726Z,28.50
2024-01-09T03:41:43.423Z,27.80
2024-01-09T03:44:11.288Z,27.10
2024-01-09T03:46:39.013Z,28.80
2024-01-09T03:49:06.739Z,27.20
2024-01-09T03:51:34.742Z,29.70
2024-01-09T03:54:02.301Z,26.60
2024-01-09T03:56:29.961Z,25.90
2024-01-09T03:58:57.731Z,28.80
2024-01-09T04:01:25.405Z,28.70
2024-01-09T04:03:52.967Z,25.30
2024-01-09T04:06:20.796Z,27.20
2024-01-09T04:08:48.536Z,27.90
2024-01-09T04:11:16.813Z,25.30
2024-01-09T04:13:44.513Z,24.00
2024-01-09T04:16:12.075Z,29.00
2024-01-09T04:18:39.714Z,27.80
2024-01-09T04:21:07.556Z,25.90
2024-01-09T04:23:35.322Z,28.90
2024-01-09T04:26:02.918Z,28.70
2024-01-09T04:28:30.602Z,29.90
2024-01-09T04:30:58.278Z,29.30
2024-01-09T04:33:26.566Z,29.70
2024-01-09T04:35:54.439Z,25.10
2024-01-09T04:38:22.167Z,26.10
2024-01-09T04:40:49.802Z,26.30
2024-01-09T04:43:17.373Z,38.60
2024-01-09T04:45:45.062Z,76.40
2024-01-09T04:48:12.777Z,65.30
2024-01-09T04:50:40.646Z,30.90
2024-01-09T04:53:08.622Z,28.80
2024-01-09T04:55:35.973Z,32.40
2024-01-09T04:58:03.548Z,32.30
2024-01-09T05:00:31.158Z,36.00
2024-01-09T05:02:58.900Z,34.90
2024-01-09T05:05:26.790Z,38.70
2024-01-09T05:07:54.587Z,37.50
2024-01-09T05:10:22.179Z,37.30
2024-01-09T05:12:49.812Z,37.20
2024-01-09T05:15:17.469Z,40.10
2024-01-09T05:17:45.121Z,39.50
2024-01-09T05:20:12.951Z,42.80
2024-01-09T05:22:40.657Z,39.80
2024-01-09T05:25:08.321Z,32.50
2024-01-09T05:27:35.876Z,31.40
2024-01-09T05:30:03.601Z,31.80
2024-01-09T05:32:31.235Z,29.00
2024-01-09T05:34:58.962Z,28.30
2024-01-09T05:37:26.827Z,36.10
2024-01-09T05:39:54.492Z,33.40
2024-01-09T05:42:22.075Z,32.50
2024-01-09T05:44:49.824Z,34.30
2024-01-09T05:47:17.894Z,33.90
2024-01-09T05:49:45.670Z,34.70
2024-01-09T05:52:13.205Z,34.50
2024-01-09T05:54:40.866Z,35.40
2024-01-09T05:57:08.751Z,31.50
2024-01-09T05:59:38.316Z,29.10
2024-01-09T06:02:06.100Z,32.00
2024-01-09T06:04:33.670Z,35.70
2024-01-09T06:07:01.381Z,32.20
2024-01-09T06:09:28.999Z,32.40
2024-01-09T06:11:56.706Z,28.00
2024-01-09T06:14:24.547Z,29.50
2024-01-09T06:16:52.178Z,27.50
2024-01-09T06:19:20.150Z,27.70
2024-01-09T06:21:47.910Z,27.30
2024-01-09T06:24:15.474Z,27.60
2024-01-09T06:26:43.226Z,26.50
2024-01-09T06:29:11.041Z,27.60
2024-01-09T06:31:38.873Z,26.50
2024-01-09T06:34:06.505Z,24.90
2024-01-09T06:36:34.075Z,29.40
2024-01-09T06:39:01.675Z,34.60
2024-01-09T06:41:29.436Z,33.50
2024-01-09T06:43:57.168Z,36.80
2024-01-09T06:46:24.828Z,46.90
2024-01-09T06:48:52.458Z,43.50
2024-01-09T06:51:20.736Z,35.40
2024-01-09T06:53:48.446Z,34.40
2024-01-09T06:56:16.155Z,35.00
2024-01-09T06:58:43.967Z,37.00
2024-01-09T07:01:14.222Z,43.80
2024-01-09T07:03:42.707Z,46.70
2024-01-09T07:06:10.513Z,52.30
2024-01-09T07:08:38.215Z,49.40
2024-01-09T07:11:05.951Z,51.10
2024-01-09T07:13:33.511Z,52.00
2024-01-09T07:16:01.181Z,48.90
2024-01-09T07:18:28.885Z,49.90
2024-01-09T07:20:57.002Z,45.60
2024-01-09T07:23:24.578Z,41.40
2024-01-09T07:25:52.126Z,42.70
2024-01-09T07:28:19.772Z,45.20
2024-01-09T07:30:47.675Z,43.20
2024-01-09T07:33:15.637Z,45.10
2024-01-09T07:35:43.311Z,43.80
2024-01-09T07:38:11.106Z,44.10
2024-01-09T07:40:38.802Z,45.80
2024-01-09T07:43:06.769Z,45.70
2024-01-09T07:45:34.126Z,56.00
2024-01-09T07:48:01.969Z,50.20
2024-01-09T07:50:29.728Z,45.90
2024-01-09T07:52:57.538Z,43.90
2024-01-09T07:55:25.072Z,44.10
2024-01-09T07:57:52.739Z,47.30
2024-01-09T08:00:20.293Z,45.60
2024-01-09T08:02:48.012Z,50.00
2024-01-09T08:05:15.653Z,60.90
2024-01-09T08:07:43.291Z,64.00
2024-01-09T08:10:10.938Z,74.60
2024-01-09T08:12:38.502Z,68.20
2024-01-09T08:15:06.084Z,87.10
2024-01-09T08:17:33.812Z,76.40
2024-01-09T08:20:01.667Z,75.00
2024-01-09T08:22:29.389Z,63.30
2024-01-09T08:24:57.215Z,54.20
2024-01-09T08:27:25.196Z,54.90
2024-01-09T08:29:52.926Z,56.40
2024-01-09T08:32:20.649Z,38.50
2024-01-09T08:34:48.494Z,36.60
2024-01-09T08:37:16.123Z,31.00
2024-01-09T08:39:43.787Z,32.60
2024-01-09T08:42:11.363Z,41.60
2024-01-09T08:44:39.019Z,36.70
2024-01-09T08:47:07.081Z,38.40
2024-01-09T08:49:34.787Z,40.10
2024-01-09T08:52:02.409Z,33.70
2024-01-09T08:54:30.093Z,33.90
2024-01-09T08:56:57.740Z,35.00
2024-01-09T08:59:25.573Z,38.00
2024-01-09T09:01:53.473Z,42.10
2024-01-09T09:04:21.125Z,70.90
2024-01-09T09:06:48.885Z,46.30
2024-01-09T09:09:17.071Z,39.10
2024-01-09T09:11:44.645Z,33.70
2024-01-09T09:14:12.460Z,32.60
2024-01-09T09:16:42.992Z,36.00
2024-01-09T09:19:11.840Z,39.20
2024-01-09T09:21:39.580Z,37.10
2024-01-09T09:24:07.253Z,34.80
2024-01-09T09:26:35.116Z,37.00
2024-01-09T09:29:11.883Z,34.80
2024-01-09T09:31:47.524Z,35.50
2024-01-09T09:34:15.137Z,38.10
2024-01-09T09:36:42.960Z,43.10
2024-01-09T09:39:10.509Z,38.50
2024-01-09T09:41:38.239Z,39.10
2024-01-09T09:44:05.930Z,38.60
2024-01-09T09:46:33.586Z,37.50
2024-01-09T09:49:01.766Z,37.70
2024-01-09T09:51:29.621Z,37.60
2024-01-09T09:53:57.305Z,38.80
2024-01-09T09:56:25.161Z,38.20
2024-01-09T09:58:52.911Z,37.70
2024-01-09T10:01:20.660Z,41.70
2024-01-09T10:03:48.407Z,38.30
2024-01-09T10:06:16.377Z,37.00
2024-01-09T10:08:44.528Z,38.90
2024-01-09T10:11:12.146Z,39.10
2024-01-09T10:13:39.713Z,37.80
2024-01-09T10:16:07.259Z,36.10
2024-01-09T10:18:35.377Z,37.80
2024-01-09T10:21:03.149Z,31.90
2024-01-09T10:23:30.796Z,31.80
2024-01-09T10:25:58.530Z,32.40
2024-01-09T10:28:26.104Z,35.60
2024-01-09T10:30:54.269Z,30.60
2024-01-09T10:33:22.206Z,30.80
2024-01-09T10:35:50.032Z,28.50
2024-01-09T10:38:17.699Z,31.60
2024-01-09T10:40:45.523Z,32.70
2024-01-09T10:43:13.063Z,32.70
2024-01-09T10:45:40.526Z,34.70
2024-01-09T10:48:08.337Z,30.40
2024-01-09T10:50:36.281Z,48.40
2024-01-09T10:53:04.229Z,43.90
2024-01-09T10:55:31.782Z,41.60
2024-01-09T10:57:59.336Z,79.30
2024-01-09T11:00:26.905Z,47.40
2024-01-09T11:02:54.598Z,50.00
2024-01-09T11:05:22.394Z,66.10
2024-01-09T11:07:50.087Z,46.20
2024-01-09T11:10:17.872Z,42.70
2024-01-09T11:12:45.524Z,39.00
2024-01-09T11:15:13.485Z,39.40
2024-01-09T11:17:41.228Z,44.30
2024-01-09T11:20:08.903Z,37.60
2024-01-09T11:22:36.580Z,61.30
2024-01-09T11:25:04.138Z,53.50
2024-01-09T11:27:31.712Z,42.10
2024-01-09T11:29:59.368Z,37.70
2024-01-09T11:32:27.067Z,39.30
2024-01-09T11:34:54.876Z,80.50
2024-01-09T11:37:22.501Z,38.20
2024-01-09T11:39:50.193Z,81.40
2024-01-09T11:42:17.755Z,39.30
2024-01-09T11:44:45.441Z,43.20
2024-01-09T11:47:13.012Z,36.30
2024-01-09T11:49:40.749Z,45.40
2024-01-09T11:52:08.625Z,39.40
2024-01-09T11:54:36.270Z,61.90
2024-01-09T11:57:04.034Z,49.90
2024-01-09T11:59:31.534Z,34.10
2024-01-09T12:01:59.283Z,41.30
2024-01-09T12:04:26.889Z,47.60
2024-01-09T12:06:54.742Z,41.00
2024-01-09T12:09:22.330Z,117.80
2024-01-09T12:11:50.011Z,37.90
2024-01-09T12:14:17.702Z,42.00
2024-01-09T12:16:45.839Z,80.20
2024-01-09T12:19:13.529Z,55.90
2024-01-09T12:21:41.357Z,50.00
2024-01-09T12:24:21.348Z,41.80
2024-01-09T12:26:52.053Z,42.60
2024-01-09T12:29:19.751Z,38.60
2024-01-09T12:31:47.550Z,41.90
2024-01-09T12:34:15.412Z,39.70
2024-01-09T12:36:43.518Z,38.40
2024-01-09T12:39:11.094Z,51.60
2024-01-09T12:41:38.786Z,52.80
2024-01-09T12:44:06.490Z,70.20
2024-01-09T12:46:34.053Z,49.20
2024-01-09T12:49:03.332Z,41.10
2024-01-09T12:51:31.422Z,41.60
2024-01-09T12:53:59.204Z,34.30
2024-01-09T12:56:27.178Z,32.80
2024-01-09T12:58:54.717Z,34.20
2024-01-09T13:01:22.377Z,34.90
2024-01-09T13:03:50.087Z,34.20
2024-01-09T13:06:18.044Z,36.70
2024-01-09T13:08:45.879Z,38.70
2024-01-09T13:11:13.537Z,32.40
2024-01-09T13:13:41.076Z,41.80
2024-01-09T13:16:09.063Z,47.00
2024-01-09T13:18:36.882Z,32.10
2024-01-09T13:21:05.012Z,34.80
2024-01-09T13:26:03.588Z,32.20
2024-01-09T13:28:31.497Z,35.20
2024-01-09T13:30:59.801Z,36.30
2024-01-09T13:33:28.170Z,36.70
2024-01-09T13:35:56.194Z,37.30
2024-01-09T13:38:24.143Z,39.40
2024-01-09T13:40:51.851Z,49.60
2024-01-09T13:43:19.475Z,46.70
2024-01-09T13:45:47.338Z,43.60
2024-01-09T13:48:15.089Z,33.70
2024-01-09T13:53:13.320Z,35.50
2024-01-09T13:55:40.777Z,35.10
2024-01-09T13:58:08.414Z,51.90
2024-01-09T14:00:36.290Z,54.90
2024-01-09T14:03:04.010Z,63.40
2024-01-09T14:05:31.787Z,80.50
2024-01-09T14:07:59.597Z,139.50
2024-01-09T14:10:27.285Z,124.60
2024-01-09T14:12:55.092Z,109.40
2024-01-09T14:15:22.786Z,63.90
2024-01-09T14:17:50.338Z,71.50
2024-01-09T14:20:18.011Z,81.40
2024-01-09T14:22:45.715Z,91.40
2024-01-09T14:25:13.723Z,99.50
2024-01-09T14:27:41.265Z,78.30
2024-01-09T14:30:08.978Z,91.10
2024-01-09T14:32:36.795Z,57.00
2024-01-09T14:35:04.628Z,53.60
2024-01-09T14:37:32.339Z,71.90
2024-01-09T14:40:00.000Z,69.10
2024-01-09T14:42:27.644Z,66.50
2024-01-09T14:44:55.718Z,73.70
2024-01-09T14:47:23.480Z,73.70
2024-01-09T14:49:51.171Z,82.70
2024-01-09T14:52:18.805Z,61.40
2024-01-09T14:54:46.372Z,64.10
2024-01-09T14:57:13.921Z,49.00
2024-01-09T14:59:41.477Z,77.20
2024-01-09T15:02:09.110Z,52.20
2024-01-09T15:04:37.228Z,44.50
2024-01-09T15:07:05.078Z,55.40
2024-01-09T15:09:32.643Z,68.90
2024-01-09T15:12:00.329Z,73.10
2024-01-09T15:14:27.857Z,76.40
2024-01-09T15:16:55.434Z,60.20
2024-01-09T15:19:23.022Z,62.30
2024-01-09T15:21:50.843Z,87.90
2024-01-09T15:24:18.507Z,103.50
2024-01-09T15:26:46.169Z,96.60
2024-01-09T15:29:13.783Z,85.30
2024-01-09T15:31:41.668Z,94.00
2024-01-09T15:34:09.562Z,115.00
2024-01-09T15:36:37.226Z,126.70
2024-01-09T15:39:04.882Z,131.30
2024-01-09T15:41:32.546Z,111.40
2024-01-09T15:44:00.257Z,89.20
2024-01-09T15:46:29.264Z,78.70
2024-01-09T15:48:57.014Z,81.80
2024-01-09T15:51:24.721Z,79.30
2024-01-09T15:53:52.387Z,79.00
2024-01-09T15:56:19.938Z,73.50
2024-01-09T15:58:47.530Z,54.10
2024-01-09T16:01:15.205Z,86.50
2024-01-09T16:03:42.936Z,91.40
2024-01-09T16:06:16.668Z,92.70
2024-01-09T16:08:44.401Z,85.30
2024-01-09T16:11:12.065Z,83.00
2024-01-09T16:13:39.963Z,87.40
2024-01-09T16:16:07.584Z,81.80
2024-01-09T16:18:35.294Z,76.20
2024-01-09T16:21:03.003Z,71.40
2024-01-09T16:23:30.558Z,72.50
2024-01-09T16:25:58.537Z,65.00
2024-01-09T16:28:26.241Z,60.10
2024-01-09T16:30:53.925Z,55.00
2024-01-09T16:33:22.300Z,61.80
2024-01-09T16:35:51.121Z,85.80
2024-01-09T16:38:18.688Z,91.90
2024-01-09T16:40:46.300Z,86.30
2024-01-09T16:43:13.998Z,72.90
2024-01-09T16:45:41.365Z,77.70
2024-01-09T16:48:09.467Z,87.40
2024-01-09T16:50:37.318Z,120.50
2024-01-09T16:53:05.035Z,125.20
2024-01-09T16:55:32.799Z,116.50
2024-01-09T16:58:00.487Z,108.70
2024-01-09T17:00:28.155Z,111.20
2024-01-09T17:02:55.722Z,93.50
2024-01-09T17:05:23.431Z,96.00
2024-01-09T17:07:51.328Z,98.40
2024-01-09T17:10:19.309Z,92.00
2024-01-09T17:12:46.966Z,81.70
2024-01-09T17:15:14.515Z,90.40
2024-01-09T17:17:42.372Z,96.80
2024-01-09T17:20:10.317Z,98.30
2024-01-09T17:22:37.969Z,101.60
2024-01-09T17:25:05.671Z,109.10
2024-01-09T17:27:33.241Z,100.80
2024-01-09T17:30:00.814Z,89.10
2024-01-09T17:32:28.771Z,98.90
2024-01-09T17:34:56.638Z,102.70
2024-01-09T17:37:24.310Z,119.10
2024-01-09T17:39:51.895Z,113.50
2024-01-09T17:42:19.512Z,119.60
2024-01-09T17:44:47.276Z,104.90
2024-01-09T17:47:15.000Z,108.10
2024-01-09T17:49:42.818Z,103.90
2024-01-09T17:52:10.773Z,108.50
2024-01-09T17:54:38.423Z,103.00
2024-01-09T17:57:05.994Z,103.30
2024-01-09T17:59:33.437Z,97.00
2024-01-09T18:02:01.036Z,116.60
2024-01-09T18:04:28.814Z,108.50
2024-01-09T18:06:56.532Z,102.40
2024-01-09T18:09:24.099Z,94.20
2024-01-09T18:11:51.764Z,110.10
2024-01-09T18:14:19.662Z,122.80
2024-01-09T18:16:47.511Z,110.40
2024-01-09T18:19:15.110Z,108.10
2024-01-09T18:21:42.796Z,107.20
2024-01-09T18:24:10.480Z,86.50
2024-01-09T18:26:50.227Z,73.70
2024-01-09T18:29:22.771Z,62.50
2024-01-09T18:31:51.113Z,66.60
2024-01-09T18:34:19.118Z,60.40
2024-01-09T18:36:46.903Z,76.40
2024-01-09T18:39:14.477Z,85.80
2024-01-09T18:41:42.017Z,82.90
2024-01-09T18:44:09.734Z,71.30
2024-01-09T18:46:37.562Z,57.90
2024-01-09T18:49:05.118Z,61.30
2024-01-09T18:51:32.768Z,61.90
2024-01-09T18:54:00.678Z,57.70
2024-01-09T18:56:28.413Z,52.50
2024-01-09T18:58:55.971Z,46.20
2024-01-09T19:01:23.704Z,49.70
2024-01-09T19:03:51.375Z,53.50
2024-01-09T19:06:19.038Z,47.40
2024-01-09T19:08:46.590Z,35.40
2024-01-09T19:11:14.131Z,31.70
2024-01-09T19:13:42.202Z,31.50
2024-01-09T19:16:09.999Z,29.60
2024-01-09T19:18:37.705Z,28.90
2024-01-09T19:21:05.409Z,32.50
2024-01-09T19:23:32.977Z,34.70
2024-01-09T19:26:00.535Z,33.10
2024-01-09T19:28:28.224Z,33.10
2024-01-09T19:30:55.910Z,35.60
2024-01-09T19:33:23.734Z,34.50
2024-01-09T19:35:51.383Z,31.40
2024-01-09T19:38:19.001Z,34.30
2024-01-09T19:40:46.748Z,36.60
2024-01-09T19:43:14.368Z,40.30
2024-01-09T19:45:41.820Z,45.50
2024-01-09T19:48:09.487Z,40.30
2024-01-09T19:50:37.166Z,39.80
2024-01-09T19:53:04.762Z,39.40
2024-01-09T19:55:32.354Z,37.20
2024-01-09T19:58:00.040Z,39.10
2024-01-09T20:00:27.712Z,43.30
2024-01-09T20:02:55.251Z,45.40
2024-01-09T20:05:23.078Z,54.10
2024-01-09T20:07:50.785Z,47.70
2024-01-09T20:10:18.433Z,67.80
2024-01-09T20:12:46.098Z,257.30
2024-01-09T20:15:13.760Z,66.30
2024-01-09T20:17:41.341Z,52.90
2024-01-09T20:20:09.532Z,56.30
2024-01-09T20:22:37.160Z,89.20
2024-01-09T20:25:04.814Z,90.40
2024-01-09T20:27:32.470Z,80.50
2024-01-09T20:30:00.066Z,63.50
2024-01-09T20:32:27.777Z,56.60
2024-01-09T20:34:55.486Z,49.80
2024-01-09T20:37:23.287Z,55.30
2024-01-09T20:39:50.885Z,56.90
2024-01-09T20:42:18.852Z,50.50
2024-01-09T20:44:46.403Z,53.80
2024-01-09T20:47:14.134Z,53.20
2024-01-09T20:49:41.934Z,55.00
2024-01-09T20:52:09.713Z,55.30
2024-01-09T20:54:37.262Z,57.40
2024-01-09T20:57:04.933Z,55.70
2024-01-09T20:59:32.476Z,55.40
2024-01-09T21:02:00.608Z,56.30
2024-01-09T21:04:28.252Z,55.00
2024-01-09T21:06:55.875Z,54.40
2024-01-09T21:09:23.430Z,51.80
2024-01-09T21:11:51.095Z,47.90
2024-01-09T21:14:18.681Z,47.30
2024-01-09T21:16:46.435Z,50.30
2024-01-09T21:19:14.159Z,44.50
2024-01-09T21:21:41.856Z,48.20
2024-01-09T21:24:09.801Z,48.40
2024-01-09T21:26:37.366Z,47.00
2024-01-09T21:29:05.234Z,47.90
2024-01-09T21:31:32.970Z,41.80
2024-01-09T21:34:00.816Z,47.50
2024-01-09T21:36:28.622Z,55.10
2024-01-09T21:38:56.286Z,55.80
2024-01-09T21:41:23.858Z,56.10
2024-01-09T21:43:51.534Z,56.90
2024-01-09T21:46:19.268Z,55.30
2024-01-09T21:48:46.909Z,55.20
2024-01-09T21:51:14.698Z,51.70
2024-01-09T21:53:42.264Z,57.80
2024-01-09T21:56:10.242Z,59.00
2024-01-09T21:58:38.110Z,58.60
2024-01-09T22:01:05.679Z,61.30
2024-01-09T22:03:35.892Z,62.30
2024-01-09T22:06:03.563Z,76.20
2024-01-09T22:08:31.088Z,73.50
2024-01-09T22:11:02.129Z,69.80
2024-01-09T22:13:31.898Z,64.10
2024-01-09T22:15:59.592Z,67.90
2024-01-09T22:18:27.329Z,73.60
2024-01-09T22:20:55.128Z,67.90
2024-01-09T22:23:22.762Z,67.90
2024-01-09T22:25:50.372Z,67.30
2024-01-09T22:28:18.421Z,54.40
2024-01-09T22:30:46.223Z,52.10
2024-01-09T22:33:14.114Z,49.60
2024-01-09T22:35:42.087Z,49.90
2024-01-09T22:38:09.909Z,45.50
2024-01-09T22:40:37.565Z,53.10
2024-01-09T22:43:05.203Z,52.10
2024-01-09T22:45:32.760Z,50.20
2024-01-09T22:48:00.746Z,50.40
2024-01-09T22:50:28.642Z,48.10
2024-01-09T22:52:56.684Z,52.50
2024-01-09T22:55:24.442Z,57.10
2024-01-09T22:57:52.199Z,57.20
2024-01-09T23:00:19.860Z,56.20
2024-01-09T23:02:47.523Z,53.00
2024-01-09T23:05:19.049Z,53.70
2024-01-09T23:07:47.272Z,56.40
2024-01-09T23:10:15.118Z,56.00
2024-01-09T23:12:43.079Z,56.60
2024-01-09T23:15:10.968Z,56.70
2024-01-09T23:17:38.933Z,59.70
2024-01-09T23:20:06.851Z,57.60
2024-01-09T23:22:34.700Z,62.30
2024-01-09T23:25:02.515Z,54.90
2024-01-09T23:27:30.174Z,54.30
2024-01-09T23:29:57.840Z,53.70
2024-01-09T23:32:25.595Z,56.90
2024-01-09T23:35:01.038Z,53.40
2024-01-09T23:37:30.262Z,51.60
2024-01-09T23:39:57.795Z,51.00
2024-01-09T23:42:25.349Z,50.80
2024-01-09T23:44:53.078Z,48.20
2024-01-09T23:47:20.859Z,48.00
2024-01-09T23:49:48.556Z,50.00
2024-01-09T23:52:16.097Z,50.80
2024-01-09T23:54:44.090Z,48.60
2024-01-09T23:57:12.749Z,48.50
2024-01-09T23:59:40.416Z,51.10
